createdAt,value
2022-10-18T00:01:09.272Z,13.79
2022-10-18T00:06:11.573Z,13.77
2022-10-18T00:08:39.383Z,13.78
2022-10-18T00:11:07.812Z,13.78
2022-10-18T00:13:35.883Z,13.78
2022-10-18T00:16:05.899Z,13.78
2022-10-18T00:18:33.847Z,13.77
2022-10-18T00:21:05.699Z,13.75
2022-10-18T00:23:34.661Z,13.72
2022-10-18T00:26:15.880Z,13.71
2022-10-18T00:28:45.092Z,13.70
2022-10-18T00:31:27.014Z,13.67
2022-10-18T00:33:59.974Z,13.67
2022-10-18T00:36:29.826Z,13.66
2022-10-18T00:38:59.032Z,13.65
2022-10-18T00:41:29.997Z,13.64
2022-10-18T00:44:04.683Z,13.62
2022-10-18T00:46:35.764Z,13.62
2022-10-18T00:49:10.856Z,13.63
2022-10-18T00:51:47.065Z,13.64
2022-10-18T00:54:16.663Z,13.63
2022-10-18T00:56:45.439Z,13.63
2022-10-18T00:59:16.968Z,13.63
2022-10-18T01:01:45.993Z,13.63
2022-10-18T01:04:16.241Z,13.59
2022-10-18T01:07:04.258Z,13.56
2022-10-18T01:09:35.868Z,13.54
2022-10-18T01:12:06.772Z,13.52
2022-10-18T01:14:50.010Z,13.49
2022-10-18T01:17:39.293Z,13.46
2022-10-18T01:20:56.449Z,13.41
2022-10-18T01:23:40.662Z,13.39
2022-10-18T01:26:27.116Z,13.37
2022-10-18T01:29:16.454Z,13.35
2022-10-18T01:31:49.656Z,13.33
2022-10-18T01:34:20.256Z,13.32
2022-10-18T01:36:52.190Z,13.31
2022-10-18T01:39:24.655Z,13.29
2022-10-18T01:41:54.441Z,13.29
2022-10-18T01:44:27.329Z,13.31
2022-10-18T01:46:57.307Z,13.32
2022-10-18T01:49:26.796Z,13.32
2022-10-18T01:51:54.679Z,13.33
2022-10-18T01:54:33.644Z,13.33
2022-10-18T01:57:07.607Z,13.34
2022-10-18T01:59:50.168Z,13.34
2022-10-18T02:02:42.839Z,13.35
2022-10-18T02:05:33.345Z,13.35
2022-10-18T02:08:41.653Z,13.35
2022-10-18T02:11:17.772Z,13.35
2022-10-18T02:14:07.892Z,13.33
2022-10-18T02:16:46.343Z,13.32
2022-10-18T02:21:59.668Z,13.32
2022-10-18T02:24:35.060Z,13.31
2022-10-18T02:27:03.450Z,13.31
2022-10-18T02:29:32.278Z,13.30
2022-10-18T02:32:34.292Z,13.30
2022-10-18T02:35:11.347Z,13.30
2022-10-18T02:37:40.441Z,13.30
2022-10-18T02:40:10.899Z,13.31
2022-10-18T02:42:40.597Z,13.29
2022-10-18T02:45:08.544Z,13.30
2022-10-18T02:47:36.345Z,13.29
2022-10-18T02:50:04.666Z,13.28
2022-10-18T02:52:32.423Z,13.27
2022-10-18T02:55:01.236Z,13.28
2022-10-18T02:57:30.548Z,13.28
2022-10-18T02:59:58.711Z,13.27
2022-10-18T03:02:27.151Z,13.26
2022-10-18T03:04:55.215Z,13.23
2022-10-18T03:07:23.851Z,13.21
2022-10-18T03:09:51.684Z,13.21
2022-10-18T03:12:19.688Z,13.20
2022-10-18T03:14:47.591Z,13.16
2022-10-18T03:17:15.722Z,13.11
2022-10-18T03:19:43.760Z,13.07
2022-10-18T03:22:11.519Z,13.07
2022-10-18T03:24:39.281Z,13.08
2022-10-18T03:27:07.153Z,13.07
2022-10-18T03:29:35.258Z,13.03
2022-10-18T03:32:03.330Z,13.02
2022-10-18T03:34:31.560Z,13.00
2022-10-18T03:37:02.152Z,13.00
2022-10-18T03:39:32.807Z,13.00
2022-10-18T03:42:00.866Z,12.96
2022-10-18T03:44:28.893Z,12.92
2022-10-18T03:46:56.927Z,12.91
2022-10-18T03:49:24.834Z,12.88
2022-10-18T03:51:52.580Z,12.84
2022-10-18T03:54:20.621Z,12.82
2022-10-18T03:56:48.626Z,12.78
2022-10-18T03:59:17.589Z,12.72
2022-10-18T04:01:45.698Z,12.70
2022-10-18T04:04:13.582Z,12.68
2022-10-18T04:06:42.095Z,12.65
2022-10-18T04:09:10.667Z,12.63
2022-10-18T04:11:38.955Z,12.62
2022-10-18T04:14:06.956Z,12.62
2022-10-18T04:19:07.680Z,12.58
2022-10-18T04:21:35.712Z,12.58
2022-10-18T04:24:04.001Z,12.55
2022-10-18T04:26:31.911Z,12.53
2022-10-18T04:29:00.171Z,12.52
2022-10-18T04:31:28.364Z,12.51
2022-10-18T04:33:56.420Z,12.48
2022-10-18T04:36:24.205Z,12.46
2022-10-18T04:38:52.154Z,12.48
2022-10-18T04:41:20.456Z,12.46
2022-10-18T04:43:49.029Z,12.44
2022-10-18T04:46:17.010Z,12.41
2022-10-18T04:48:45.218Z,12.39
2022-10-18T04:51:13.085Z,12.37
2022-10-18T04:53:41.090Z,12.35
2022-10-18T04:56:09.027Z,12.32
2022-10-18T04:58:37.103Z,12.29
2022-10-18T05:01:06.615Z,12.28
2022-10-18T05:03:35.165Z,12.25
2022-10-18T05:06:03.759Z,12.21
2022-10-18T05:08:33.698Z,12.21
2022-10-18T05:11:02.647Z,12.23
2022-10-18T05:13:31.412Z,12.27
2022-10-18T05:16:00.203Z,12.30
2022-10-18T05:18:28.463Z,12.30
2022-10-18T05:20:56.770Z,12.29
2022-10-18T05:23:25.010Z,12.31
2022-10-18T05:25:53.582Z,12.34
2022-10-18T05:28:40.149Z,12.37
2022-10-18T05:31:10.937Z,12.38
2022-10-18T05:33:38.843Z,12.37
2022-10-18T05:36:07.174Z,12.36
2022-10-18T05:38:38.066Z,12.38
2022-10-18T05:41:06.221Z,12.43
2022-10-18T05:43:34.603Z,13.03
2022-10-18T05:46:02.480Z,13.37
2022-10-18T05:48:30.317Z,13.30
2022-10-18T05:50:59.828Z,13.14
2022-10-18T05:53:37.029Z,13.01
2022-10-18T05:56:06.764Z,12.91
2022-10-18T05:58:35.000Z,12.87
2022-10-18T06:01:04.394Z,12.86
2022-10-18T06:03:32.521Z,12.84
2022-10-18T06:06:06.229Z,12.83
2022-10-18T06:08:35.308Z,13.13
2022-10-18T06:11:10.994Z,13.24
2022-10-18T06:13:43.814Z,13.31
2022-10-18T06:16:14.122Z,13.62
2022-10-18T06:18:42.903Z,14.16
2022-10-18T06:21:10.783Z,14.29
2022-10-18T06:23:38.666Z,14.19
2022-10-18T06:26:08.854Z,14.07
2022-10-18T06:28:38.352Z,14.01
2022-10-18T06:31:07.062Z,13.94
2022-10-18T06:33:37.247Z,13.89
2022-10-18T06:36:12.563Z,13.87
2022-10-18T06:38:40.660Z,13.85
2022-10-18T06:41:09.575Z,13.84
2022-10-18T06:43:37.611Z,13.84
2022-10-18T06:46:07.907Z,13.89
2022-10-18T06:48:36.782Z,13.94
2022-10-18T06:51:07.617Z,13.99
2022-10-18T06:53:43.872Z,14.04
2022-10-18T06:56:13.548Z,14.10
2022-10-18T06:58:41.432Z,14.17
2022-10-18T07:01:16.014Z,14.24
2022-10-18T07:03:45.179Z,14.32
2022-10-18T07:06:14.934Z,14.37
2022-10-18T07:08:43.672Z,14.44
2022-10-18T07:11:18.014Z,14.49
2022-10-18T07:13:46.491Z,14.56
2022-10-18T07:16:18.397Z,14.62
2022-10-18T07:18:50.105Z,14.70
2022-10-18T07:21:23.341Z,14.75
2022-10-18T07:23:52.407Z,14.83
2022-10-18T07:26:25.283Z,14.91
2022-10-18T07:29:02.565Z,14.98
2022-10-18T07:31:30.732Z,15.05
2022-10-18T07:33:59.092Z,15.13
2022-10-18T07:36:27.407Z,15.20
2022-10-18T07:38:55.166Z,15.28
2022-10-18T07:41:23.840Z,15.34
2022-10-18T07:43:53.069Z,15.42
2022-10-18T07:46:22.612Z,15.49
2022-10-18T07:48:51.262Z,15.56
2022-10-18T07:51:20.578Z,15.64
2022-10-18T07:53:48.611Z,15.69
2022-10-18T07:56:21.017Z,15.73
2022-10-18T07:58:54.772Z,15.81
2022-10-18T08:01:24.481Z,15.89
2022-10-18T08:03:53.708Z,15.94
2022-10-18T08:06:23.335Z,16.00
2022-10-18T08:08:52.196Z,16.05
2022-10-18T08:11:23.057Z,16.11
2022-10-18T08:13:52.141Z,16.15
2022-10-18T08:16:22.647Z,16.24
2022-10-18T08:18:50.520Z,16.33
2022-10-18T08:21:19.946Z,16.37
2022-10-18T08:23:48.141Z,16.40
2022-10-18T08:26:20.590Z,16.41
2022-10-18T08:28:54.101Z,16.48
2022-10-18T08:31:26.708Z,16.54
2022-10-18T08:33:57.308Z,16.59
2022-10-18T08:36:25.159Z,16.64
2022-10-18T08:38:53.035Z,16.69
2022-10-18T08:41:27.168Z,16.74
2022-10-18T08:44:27.756Z,16.78
2022-10-18T08:47:00.916Z,16.81
2022-10-18T08:49:44.176Z,16.92
2022-10-18T08:52:41.895Z,17.03
2022-10-18T08:55:22.875Z,17.10
2022-10-18T08:57:51.853Z,17.14
2022-10-18T09:00:25.701Z,17.21
2022-10-18T09:03:31.173Z,17.28
2022-10-18T09:06:19.871Z,17.35
2022-10-18T09:09:08.756Z,17.47
2022-10-18T09:11:50.380Z,17.58
2022-10-18T09:14:24.866Z,17.62
2022-10-18T09:17:22.906Z,17.73
2022-10-18T09:23:09.412Z,17.85
2022-10-18T09:25:49.667Z,17.90
2022-10-18T09:28:26.838Z,17.94
2022-10-18T09:31:06.954Z,17.98
2022-10-18T09:33:51.333Z,18.05
2022-10-18T09:36:26.036Z,18.12
2022-10-18T09:39:00.545Z,18.19
2022-10-18T09:41:37.840Z,18.25
2022-10-18T09:44:26.124Z,18.28
2022-10-18T09:47:08.143Z,18.30
2022-10-18T09:49:57.463Z,18.35
2022-10-18T09:52:36.086Z,18.38
2022-10-18T09:55:14.342Z,18.47
2022-10-18T09:57:52.613Z,18.52
2022-10-18T10:00:29.636Z,18.55
2022-10-18T10:02:59.225Z,18.59
2022-10-18T10:05:27.290Z,18.69
2022-10-18T10:07:59.945Z,18.80
2022-10-18T10:10:31.037Z,18.89
2022-10-18T10:13:23.028Z,18.93
2022-10-18T10:15:55.264Z,18.96
2022-10-18T10:18:31.232Z,18.97
2022-10-18T10:21:03.146Z,19.04
2022-10-18T10:23:36.749Z,19.09
2022-10-18T10:26:20.704Z,19.19
2022-10-18T10:28:49.037Z,19.23
2022-10-18T10:31:31.374Z,19.29
2022-10-18T10:34:14.485Z,19.33
2022-10-18T10:36:50.590Z,19.34
2022-10-18T10:39:20.907Z,19.42
2022-10-18T10:41:51.441Z,19.47
2022-10-18T10:44:21.693Z,19.56
2022-10-18T10:46:53.841Z,19.65
2022-10-18T10:49:40.047Z,19.71
2022-10-18T10:52:28.948Z,19.78
2022-10-18T10:55:06.212Z,19.86
2022-10-18T10:57:48.999Z,19.90
2022-10-18T11:00:42.099Z,19.99
2022-10-18T11:03:28.697Z,20.10
2022-10-18T11:06:00.944Z,20.18
2022-10-18T11:08:39.079Z,20.29
2022-10-18T11:11:33.671Z,20.42
2022-10-18T11:14:26.915Z,20.54
2022-10-18T11:17:14.582Z,20.63
2022-10-18T11:20:01.486Z,20.73
2022-10-18T11:22:36.254Z,20.83
2022-10-18T11:25:05.852Z,20.94
2022-10-18T11:27:43.037Z,20.97
2022-10-18T11:30:19.104Z,21.04
2022-10-18T11:33:15.155Z,21.16
2022-10-18T11:35:49.922Z,21.31
2022-10-18T11:38:39.309Z,21.42
2022-10-18T11:41:31.441Z,21.53
2022-10-18T11:44:06.891Z,21.64
2022-10-18T11:46:40.934Z,21.69
2022-10-18T11:49:36.705Z,21.73
2022-10-18T11:52:20.312Z,21.84
2022-10-18T11:55:03.196Z,21.94
2022-10-18T11:57:39.864Z,21.99
2022-10-18T12:00:22.898Z,22.03
2022-10-18T12:03:15.112Z,22.11
2022-10-18T12:05:46.093Z,22.16
2022-10-18T12:08:49.507Z,22.20
2022-10-18T12:11:32.963Z,22.23
2022-10-18T12:14:03.657Z,22.26
2022-10-18T12:16:50.900Z,22.28
2022-10-18T12:19:27.087Z,22.33
2022-10-18T12:22:02.658Z,22.38
2022-10-18T12:24:32.701Z,22.45
2022-10-18T12:27:01.776Z,22.49
2022-10-18T12:29:57.473Z,22.48
2022-10-18T12:32:32.123Z,22.48
2022-10-18T12:35:06.755Z,22.51
2022-10-18T12:38:03.015Z,22.55
2022-10-18T12:40:44.932Z,22.58
2022-10-18T12:43:25.172Z,22.64
2022-10-18T12:45:57.621Z,22.64
2022-10-18T12:48:42.786Z,22.70
2022-10-18T12:51:22.639Z,22.72
2022-10-18T12:54:10.661Z,22.78
2022-10-18T12:56:42.380Z,22.88
2022-10-18T12:59:16.553Z,22.94
2022-10-18T13:01:53.325Z,22.94
2022-10-18T13:04:27.393Z,22.95
2022-10-18T13:07:00.785Z,22.98
2022-10-18T13:09:36.844Z,22.99
2022-10-18T13:12:10.759Z,23.01
2022-10-18T13:14:59.178Z,23.02
2022-10-18T13:17:44.099Z,23.05
2022-10-18T13:21:10.795Z,23.07
2022-10-18T13:24:04.239Z,23.10
2022-10-18T13:26:40.694Z,23.12
2022-10-18T13:29:47.620Z,23.15
2022-10-18T13:32:36.982Z,23.18
2022-10-18T13:35:44.006Z,23.24
2022-10-18T13:38:39.463Z,23.25
2022-10-18T13:41:13.874Z,23.22
2022-10-18T13:43:57.216Z,23.09
2022-10-18T13:46:34.026Z,23.00
2022-10-18T13:49:35.245Z,22.96
2022-10-18T13:52:32.092Z,22.98
2022-10-18T13:55:06.187Z,23.02
2022-10-18T13:57:37.330Z,23.03
2022-10-18T14:00:23.276Z,23.06
2022-10-18T14:03:37.535Z,23.05
2022-10-18T14:06:22.664Z,22.98
2022-10-18T14:09:09.372Z,22.92
2022-10-18T14:11:50.312Z,22.89
2022-10-18T14:14:36.728Z,22.86
2022-10-18T14:17:19.887Z,22.75
2022-10-18T14:20:06.465Z,22.62
2022-10-18T14:22:34.695Z,22.53
2022-10-18T14:25:03.332Z,22.42
2022-10-18T14:27:32.999Z,22.33
2022-10-18T14:30:17.674Z,22.28
2022-10-18T14:32:49.463Z,22.22
2022-10-18T14:35:32.229Z,22.14
2022-10-18T14:38:02.180Z,22.09
2022-10-18T14:40:38.997Z,22.03
2022-10-18T14:43:14.655Z,22.00
2022-10-18T14:45:43.137Z,21.95
2022-10-18T14:48:17.714Z,21.91
2022-10-18T14:50:49.867Z,21.85
2022-10-18T14:53:25.120Z,21.76
2022-10-18T14:55:58.120Z,21.67
2022-10-18T14:58:25.898Z,21.59
2022-10-18T15:00:54.821Z,21.51
2022-10-18T15:03:23.840Z,21.43
2022-10-18T15:05:57.851Z,21.34
2022-10-18T15:08:39.856Z,21.26
2022-10-18T15:11:11.892Z,21.17
2022-10-18T15:13:49.233Z,21.08
2022-10-18T15:16:20.014Z,20.97
2022-10-18T15:19:08.298Z,20.87
2022-10-18T15:21:36.827Z,20.76
2022-10-18T15:24:28.544Z,20.65
2022-10-18T15:27:00.332Z,20.61
2022-10-18T15:29:33.242Z,20.53
2022-10-18T15:32:20.030Z,20.39
2022-10-18T15:34:48.212Z,20.23
2022-10-18T15:37:36.809Z,20.09
2022-10-18T15:40:23.085Z,19.92
2022-10-18T15:42:56.584Z,19.78
2022-10-18T15:45:24.627Z,19.68
2022-10-18T15:48:11.079Z,19.58
2022-10-18T15:50:48.081Z,19.45
2022-10-18T15:53:24.770Z,19.30
2022-10-18T15:56:05.011Z,19.18
2022-10-18T15:58:44.826Z,19.06
2022-10-18T16:01:18.840Z,18.92
2022-10-18T16:03:48.131Z,18.77
2022-10-18T16:06:18.255Z,18.64
2022-10-18T16:08:49.974Z,18.54
2022-10-18T16:11:24.491Z,18.42
2022-10-18T16:13:56.394Z,18.32
2022-10-18T16:16:29.245Z,18.22
2022-10-18T16:18:58.038Z,18.16
2022-10-18T16:21:38.590Z,18.09
2022-10-18T16:24:06.732Z,18.00
2022-10-18T16:26:35.238Z,17.93
2022-10-18T16:29:04.429Z,17.85
2022-10-18T16:31:34.265Z,17.80
2022-10-18T16:34:02.669Z,17.73
2022-10-18T16:36:33.531Z,17.65
2022-10-18T16:39:03.714Z,17.58
2022-10-18T16:41:31.442Z,17.54
2022-10-18T16:43:59.849Z,17.47
2022-10-18T16:46:31.704Z,17.42
2022-10-18T16:49:00.359Z,17.36
2022-10-18T16:51:28.226Z,17.31
2022-10-18T16:53:56.097Z,17.27
2022-10-18T16:56:32.228Z,17.23
2022-10-18T16:59:00.731Z,17.18
2022-10-18T17:01:29.572Z,17.13
2022-10-18T17:03:57.695Z,17.09
2022-10-18T17:06:29.645Z,17.03
2022-10-18T17:08:58.162Z,16.97
2022-10-18T17:11:29.698Z,16.86
2022-10-18T17:13:57.703Z,16.79
2022-10-18T17:18:59.319Z,16.65
2022-10-18T17:21:28.749Z,16.53
2022-10-18T17:24:00.553Z,16.46
2022-10-18T17:26:29.973Z,16.39
2022-10-18T17:29:00.792Z,16.36
2022-10-18T17:31:29.425Z,16.31
2022-10-18T17:33:58.805Z,16.27
2022-10-18T17:36:27.776Z,16.24
2022-10-18T17:38:56.575Z,16.22
2022-10-18T17:41:25.101Z,16.21
2022-10-18T17:43:53.832Z,16.18
2022-10-18T17:46:23.761Z,16.15
2022-10-18T17:48:52.250Z,16.15
2022-10-18T17:51:20.431Z,16.13
2022-10-18T17:53:48.606Z,16.09
2022-10-18T17:56:16.728Z,16.05
2022-10-18T17:58:45.701Z,16.00
2022-10-18T18:01:17.128Z,15.95
2022-10-18T18:03:45.572Z,15.91
2022-10-18T18:06:22.719Z,15.87
2022-10-18T18:08:50.983Z,15.84
2022-10-18T18:11:19.549Z,15.81
2022-10-18T18:13:47.663Z,15.78
2022-10-18T18:16:25.561Z,15.73
2022-10-18T18:18:56.186Z,15.71
2022-10-18T18:21:25.907Z,15.66
2022-10-18T18:23:55.080Z,15.64
2022-10-18T18:26:23.618Z,15.60
2022-10-18T18:28:51.771Z,15.57
2022-10-18T18:31:25.711Z,15.55
2022-10-18T18:33:56.159Z,15.50
2022-10-18T18:36:29.068Z,15.45
2022-10-18T18:38:58.000Z,15.41
2022-10-18T18:41:28.366Z,15.36
2022-10-18T18:43:59.031Z,15.31
2022-10-18T18:46:28.860Z,15.27
2022-10-18T18:48:58.573Z,15.25
2022-10-18T18:51:27.101Z,15.23
2022-10-18T18:53:55.566Z,15.18
2022-10-18T18:56:25.744Z,15.16
2022-10-18T18:58:54.618Z,15.12
2022-10-18T19:01:25.503Z,15.06
2022-10-18T19:03:55.368Z,15.02
2022-10-18T19:06:26.575Z,14.97
2022-10-18T19:09:01.850Z,14.89
2022-10-18T19:11:33.426Z,14.82
2022-10-18T19:14:02.801Z,14.78
2022-10-18T19:16:35.595Z,14.75
2022-10-18T19:19:08.127Z,14.72
2022-10-18T19:21:39.534Z,14.70
2022-10-18T19:24:08.475Z,14.70
2022-10-18T19:27:04.215Z,14.66
2022-10-18T19:29:38.096Z,14.63
2022-10-18T19:32:08.992Z,14.59
2022-10-18T19:34:38.482Z,14.56
2022-10-18T19:37:06.767Z,14.53
2022-10-18T19:39:35.648Z,14.49
2022-10-18T19:42:09.190Z,14.44
2022-10-18T19:44:37.966Z,14.38
2022-10-18T19:47:08.464Z,14.31
2022-10-18T19:49:37.174Z,14.25
2022-10-18T19:52:05.479Z,14.20
2022-10-18T19:54:33.597Z,14.18
2022-10-18T19:57:02.020Z,14.15
2022-10-18T19:59:30.550Z,14.12
2022-10-18T20:02:00.707Z,14.07
2022-10-18T20:04:34.074Z,14.03
2022-10-18T20:07:02.876Z,13.98
2022-10-18T20:09:31.221Z,13.97
2022-10-18T20:11:59.082Z,13.93
2022-10-18T20:14:27.129Z,13.89
2022-10-18T20:16:54.874Z,13.84
2022-10-18T20:19:23.569Z,13.81
2022-10-18T20:21:51.640Z,13.79
2022-10-18T20:24:19.403Z,13.76
2022-10-18T20:26:47.609Z,13.73
2022-10-18T20:29:15.626Z,13.73
2022-10-18T20:31:43.816Z,13.72
2022-10-18T20:34:12.110Z,13.71
2022-10-18T20:36:40.254Z,13.69
2022-10-18T20:39:08.128Z,13.68
2022-10-18T20:41:40.044Z,13.64
2022-10-18T20:44:13.620Z,13.61
2022-10-18T20:46:42.100Z,13.59
2022-10-18T20:49:15.113Z,13.56
2022-10-18T20:51:43.068Z,13.54
2022-10-18T20:54:11.539Z,13.53
2022-10-18T20:56:39.633Z,13.52
2022-10-18T20:59:10.305Z,13.50
2022-10-18T21:01:39.432Z,13.44
2022-10-18T21:04:09.895Z,13.41
2022-10-18T21:06:43.416Z,13.41
2022-10-18T21:09:17.234Z,13.38
2022-10-18T21:11:49.560Z,13.35
2022-10-18T21:14:20.304Z,13.35
2022-10-18T21:16:49.960Z,13.37
2022-10-18T21:19:25.221Z,13.38
2022-10-18T21:21:57.471Z,13.39
2022-10-18T21:24:27.011Z,13.37
2022-10-18T21:26:54.993Z,13.37
2022-10-18T21:29:26.989Z,13.37
2022-10-18T21:31:58.089Z,13.34
2022-10-18T21:34:26.780Z,13.34
2022-10-18T21:36:54.576Z,13.34
2022-10-18T21:41:52.313Z,13.29
2022-10-18T21:44:20.804Z,13.23
2022-10-18T21:46:48.936Z,13.18
2022-10-18T21:49:17.452Z,13.14
2022-10-18T21:51:45.363Z,13.12
2022-10-18T21:54:16.338Z,13.10
2022-10-18T21:56:44.241Z,13.06
2022-10-18T21:59:13.261Z,13.05
2022-10-18T22:01:42.726Z,13.02
2022-10-18T22:04:22.479Z,12.99
2022-10-18T22:06:50.977Z,12.99
2022-10-18T22:09:19.996Z,13.00
2022-10-18T22:11:51.362Z,12.99
2022-10-18T22:14:19.608Z,12.97
2022-10-18T22:16:48.194Z,12.98
2022-10-18T22:19:16.622Z,12.98
2022-10-18T22:21:44.410Z,12.97
2022-10-18T22:24:12.584Z,12.97
2022-10-18T22:26:43.046Z,12.95
2022-10-18T22:29:13.824Z,12.93
2022-10-18T22:31:44.911Z,12.91
2022-10-18T22:34:15.925Z,12.87
2022-10-18T22:36:44.432Z,12.85
2022-10-18T22:39:14.541Z,12.87
2022-10-18T22:41:43.860Z,12.86
2022-10-18T22:44:13.580Z,12.85
2022-10-18T22:46:42.420Z,12.85
2022-10-18T22:49:11.075Z,12.83
2022-10-18T22:51:39.201Z,12.81
2022-10-18T22:54:07.272Z,12.78
2022-10-18T22:56:35.338Z,12.76
2022-10-18T22:59:03.998Z,12.74
2022-10-18T23:01:31.859Z,12.74
2022-10-18T23:04:00.956Z,12.75
2022-10-18T23:06:34.429Z,12.74
2022-10-18T23:09:07.578Z,12.71
2022-10-18T23:11:36.780Z,12.72
2022-10-18T23:14:06.242Z,12.74
2022-10-18T23:16:34.251Z,12.74
2022-10-18T23:19:02.757Z,12.72
2022-10-18T23:21:30.669Z,12.73
2022-10-18T23:23:58.534Z,12.69
2022-10-18T23:26:27.929Z,12.65
2022-10-18T23:28:56.965Z,12.60
2022-10-18T23:31:27.913Z,12.58
2022-10-18T23:33:59.117Z,12.57
2022-10-18T23:36:27.699Z,12.54
2022-10-18T23:38:55.574Z,12.49
2022-10-18T23:41:24.365Z,12.50
2022-10-18T23:43:52.340Z,12.52
2022-10-18T23:46:20.950Z,12.52
2022-10-18T23:48:49.420Z,12.53
2022-10-18T23:51:18.052Z,12.50
2022-10-18T23:53:46.404Z,12.46
2022-10-18T23:56:16.180Z,12.41
2022-10-18T23:58:45.870Z,12.39
